createdAt,value
2018-12-25T00:01:34.193Z,1.50
2018-12-25T00:04:01.745Z,1.40
2018-12-25T00:06:29.249Z,1.40
2018-12-25T00:08:56.774Z,1.40
2018-12-25T00:11:24.283Z,1.40
2018-12-25T00:13:51.780Z,1.40
2018-12-25T00:16:19.361Z,1.50
2018-12-25T00:18:46.900Z,1.40
2018-12-25T00:21:14.398Z,1.50
2018-12-25T00:23:41.931Z,1.50
2018-12-25T00:26:09.425Z,1.60
2018-12-25T00:28:36.889Z,1.60
2018-12-25T00:31:04.421Z,1.60
2018-12-25T00:33:31.907Z,2.20
2018-12-25T00:35:59.433Z,1.70
2018-12-25T00:38:26.965Z,1.70
2018-12-25T00:40:54.480Z,1.70
2018-12-25T00:43:21.959Z,1.70
2018-12-25T00:45:49.460Z,1.70
2018-12-25T00:48:17.282Z,1.70
2018-12-25T00:50:44.786Z,1.60
2018-12-25T00:53:12.273Z,1.70
2018-12-25T00:55:39.800Z,1.60
2018-12-25T00:58:07.314Z,1.50
2018-12-25T01:00:34.807Z,1.40
2018-12-25T01:03:02.355Z,1.30
2018-12-25T01:05:29.856Z,1.20
2018-12-25T01:07:57.354Z,1.20
2018-12-25T01:10:24.882Z,1.70
2018-12-25T01:12:52.377Z,1.10
2018-12-25T01:15:19.925Z,1.00
2018-12-25T01:17:47.455Z,1.00
2018-12-25T01:20:14.972Z,1.00
2018-12-25T01:22:42.470Z,0.90
2018-12-25T01:25:09.991Z,0.90
2018-12-25T01:27:37.521Z,0.90
2018-12-25T01:30:05.147Z,0.90
2018-12-25T01:32:32.675Z,1.10
2018-12-25T01:35:00.233Z,1.00
2018-12-25T01:37:27.687Z,1.00
2018-12-25T01:39:55.196Z,1.00
2018-12-25T01:42:22.692Z,1.00
2018-12-25T01:44:50.443Z,1.00
2018-12-25T01:47:18.046Z,1.00
2018-12-25T01:49:45.607Z,1.00
2018-12-25T01:52:13.140Z,0.90
2018-12-25T01:54:40.677Z,1.00
2018-12-25T01:57:08.183Z,0.80
2018-12-25T01:59:35.705Z,0.80
2018-12-25T02:02:03.239Z,0.70
2018-12-25T02:04:30.753Z,0.70
2018-12-25T02:06:58.321Z,0.70
2018-12-25T02:09:25.821Z,0.60
2018-12-25T02:11:53.369Z,0.50
2018-12-25T02:14:20.868Z,0.40
2018-12-25T02:16:48.388Z,0.40
2018-12-25T02:19:15.928Z,0.40
2018-12-25T02:21:43.407Z,0.40
2018-12-25T02:24:10.938Z,0.30
2018-12-25T02:26:38.414Z,0.30
2018-12-25T02:29:05.902Z,0.30
2018-12-25T02:31:33.637Z,0.30
2018-12-25T02:34:01.131Z,0.30
2018-12-25T02:36:28.697Z,0.40
2018-12-25T02:38:56.412Z,0.50
2018-12-25T02:41:23.943Z,0.40
2018-12-25T02:43:51.430Z,0.40
2018-12-25T02:46:19.190Z,0.50
2018-12-25T02:48:46.823Z,0.50
2018-12-25T02:51:14.323Z,0.50
2018-12-25T02:53:41.875Z,0.50
2018-12-25T02:56:09.392Z,0.50
2018-12-25T02:58:36.911Z,0.50
2018-12-25T03:01:04.536Z,0.50
2018-12-25T03:03:32.061Z,0.40
2018-12-25T03:06:00.486Z,2.10
2018-12-25T03:08:27.979Z,0.40
2018-12-25T03:10:55.502Z,0.30
2018-12-25T03:13:23.265Z,0.30
2018-12-25T03:15:50.801Z,0.30
2018-12-25T03:18:18.303Z,0.30
2018-12-25T03:20:46.083Z,0.30
2018-12-25T03:23:13.592Z,0.30
2018-12-25T03:25:41.070Z,0.50
2018-12-25T03:28:08.576Z,0.20
2018-12-25T03:30:36.286Z,0.20
2018-12-25T03:33:03.763Z,0.10
2018-12-25T03:35:31.273Z,0.00
2018-12-25T03:37:58.797Z,0.00
2018-12-25T03:40:26.351Z,-0.10
2018-12-25T03:42:53.868Z,-0.60
2018-12-25T03:45:21.445Z,-0.10
2018-12-25T03:47:48.917Z,-0.10
2018-12-25T03:50:16.470Z,-0.10
2018-12-25T03:52:43.995Z,-0.20
2018-12-25T03:55:11.814Z,-0.10
2018-12-25T03:57:39.309Z,-0.20
2018-12-25T04:00:07.200Z,-0.20
2018-12-25T04:02:34.709Z,-0.20
2018-12-25T04:05:02.294Z,-0.20
2018-12-25T04:07:29.904Z,-0.30
2018-12-25T04:09:57.396Z,-0.30
2018-12-25T04:12:24.925Z,-0.30
2018-12-25T04:14:54.381Z,-0.20
2018-12-25T04:17:21.879Z,-0.20
2018-12-25T04:19:49.380Z,-0.20
2018-12-25T04:22:16.866Z,-0.10
2018-12-25T04:24:44.504Z,-0.10
2018-12-25T04:27:12.052Z,-0.10
2018-12-25T04:29:39.570Z,-0.10
2018-12-25T04:32:07.082Z,0.00
2018-12-25T04:34:34.591Z,0.00
2018-12-25T04:37:02.138Z,-0.10
2018-12-25T04:39:29.664Z,0.30
2018-12-25T04:41:57.207Z,0.00
2018-12-25T04:44:25.021Z,0.00
2018-12-25T04:46:52.541Z,0.00
2018-12-25T04:49:20.092Z,0.10
2018-12-25T04:51:47.673Z,0.10
2018-12-25T04:54:15.246Z,0.10
2018-12-25T04:56:42.772Z,0.20
2018-12-25T04:59:10.304Z,0.20
2018-12-25T05:01:37.815Z,0.20
2018-12-25T05:04:05.345Z,0.20
2018-12-25T05:06:32.829Z,0.20
2018-12-25T05:09:00.293Z,0.20
2018-12-25T05:11:27.826Z,0.20
2018-12-25T05:13:55.307Z,0.20
2018-12-25T05:16:22.831Z,0.20
2018-12-25T05:18:50.345Z,0.30
2018-12-25T05:21:17.835Z,0.60
2018-12-25T05:23:45.316Z,0.30
2018-12-25T05:26:12.854Z,0.30
2018-12-25T05:28:40.382Z,0.30
2018-12-25T05:31:07.903Z,0.30
2018-12-25T05:33:35.931Z,0.30
2018-12-25T05:36:03.600Z,0.30
2018-12-25T05:38:36.945Z,0.30
2018-12-25T05:41:04.436Z,0.30
2018-12-25T05:43:32.164Z,0.30
2018-12-25T05:45:59.669Z,0.30
2018-12-25T05:48:27.141Z,0.30
2018-12-25T05:50:54.823Z,0.40
2018-12-25T05:53:22.357Z,0.30
2018-12-25T05:55:49.887Z,0.30
2018-12-25T05:58:17.404Z,0.30
2018-12-25T06:00:45.304Z,0.30
2018-12-25T06:03:12.825Z,0.40
2018-12-25T06:05:40.354Z,0.30
2018-12-25T06:08:08.161Z,0.30
2018-12-25T06:10:35.632Z,0.30
2018-12-25T06:13:03.104Z,0.30
2018-12-25T06:15:30.634Z,0.40
2018-12-25T06:17:58.147Z,0.30
2018-12-25T06:20:25.680Z,0.30
2018-12-25T06:22:53.163Z,0.40
2018-12-25T06:25:20.688Z,0.40
2018-12-25T06:27:48.176Z,0.40
2018-12-25T06:30:15.557Z,0.40
2018-12-25T06:32:43.103Z,0.40
2018-12-25T06:35:10.605Z,0.40
2018-12-25T06:37:38.096Z,0.40
2018-12-25T06:40:05.790Z,2.30
2018-12-25T06:42:34.657Z,0.40
2018-12-25T06:45:02.320Z,0.60
2018-12-25T06:47:29.874Z,1.70
2018-12-25T06:49:57.387Z,0.40
2018-12-25T06:52:25.187Z,0.30
2018-12-25T06:54:52.689Z,0.30
2018-12-25T06:57:22.888Z,0.30
2018-12-25T06:59:50.412Z,0.40
2018-12-25T07:02:17.964Z,0.30
2018-12-25T07:04:45.682Z,0.30
2018-12-25T07:07:13.197Z,0.40
2018-12-25T07:09:40.716Z,0.50
2018-12-25T07:12:08.268Z,0.40
2018-12-25T07:14:35.771Z,0.40
2018-12-25T07:17:03.230Z,0.40
2018-12-25T07:19:30.964Z,0.40
2018-12-25T07:21:58.652Z,0.60
2018-12-25T07:24:26.311Z,0.80
2018-12-25T07:26:53.921Z,0.40
2018-12-25T07:29:21.668Z,0.40
2018-12-25T07:31:49.163Z,0.40
2018-12-25T07:34:16.681Z,0.40
2018-12-25T07:36:44.283Z,0.40
2018-12-25T07:39:11.793Z,0.60
2018-12-25T07:41:39.290Z,0.40
2018-12-25T07:44:06.847Z,0.50
2018-12-25T07:46:34.355Z,0.50
2018-12-25T07:49:01.935Z,0.70
2018-12-25T07:51:29.510Z,0.50
2018-12-25T07:53:57.056Z,0.50
2018-12-25T07:56:24.580Z,0.60
2018-12-25T07:58:52.052Z,0.60
2018-12-25T08:01:19.647Z,0.60
2018-12-25T08:03:47.051Z,0.60
2018-12-25T08:06:14.519Z,0.60
2018-12-25T08:08:42.034Z,0.70
2018-12-25T08:11:09.533Z,0.70
2018-12-25T08:13:37.236Z,0.70
2018-12-25T08:16:04.736Z,0.70
2018-12-25T08:18:32.201Z,0.90
2018-12-25T08:20:59.714Z,0.70
2018-12-25T08:23:27.220Z,0.80
2018-12-25T08:25:54.751Z,0.80
2018-12-25T08:28:22.330Z,0.80
2018-12-25T08:30:49.800Z,0.90
2018-12-25T08:33:17.332Z,0.90
2018-12-25T08:35:44.828Z,0.90
2018-12-25T08:38:12.530Z,1.00
2018-12-25T08:40:39.986Z,1.10
2018-12-25T08:43:07.503Z,1.10
2018-12-25T08:45:35.023Z,1.20
2018-12-25T08:48:02.491Z,1.20
2018-12-25T08:50:30.981Z,1.20
2018-12-25T08:52:58.449Z,1.20
2018-12-25T08:55:25.964Z,1.20
2018-12-25T08:57:54.892Z,1.20
2018-12-25T09:00:22.763Z,1.20
2018-12-25T09:02:50.261Z,1.20
2018-12-25T09:05:17.741Z,1.10
2018-12-25T09:07:45.246Z,1.10
2018-12-25T09:10:12.730Z,1.00
2018-12-25T09:12:40.224Z,1.10
2018-12-25T09:15:07.714Z,1.10
2018-12-25T09:17:35.200Z,1.10
2018-12-25T09:20:03.851Z,1.20
2018-12-25T09:22:31.302Z,1.10
2018-12-25T09:24:58.784Z,1.20
2018-12-25T09:27:26.326Z,1.20
2018-12-25T09:29:53.842Z,1.20
2018-12-25T09:32:21.360Z,1.20
2018-12-25T09:34:48.823Z,1.30
2018-12-25T09:37:16.316Z,1.30
2018-12-25T09:39:43.817Z,1.20
2018-12-25T09:42:11.331Z,1.30
2018-12-25T09:44:38.824Z,1.30
2018-12-25T09:47:06.333Z,1.30
2018-12-25T09:49:34.004Z,1.30
2018-12-25T09:52:01.803Z,1.30
2018-12-25T09:54:29.278Z,1.30
2018-12-25T09:56:56.763Z,1.30
2018-12-25T09:59:24.279Z,1.30
2018-12-25T10:01:51.986Z,1.30
2018-12-25T10:04:19.477Z,1.40
2018-12-25T10:06:47.008Z,1.40
2018-12-25T10:09:14.636Z,2.20
2018-12-25T10:11:44.627Z,1.40
2018-12-25T10:14:11.438Z,1.40
2018-12-25T10:16:38.982Z,1.40
2018-12-25T10:19:06.465Z,1.40
2018-12-25T10:21:33.998Z,1.40
2018-12-25T10:24:01.506Z,1.40
2018-12-25T10:26:29.014Z,1.50
2018-12-25T10:28:56.542Z,1.50
2018-12-25T10:31:24.012Z,1.50
2018-12-25T10:33:51.537Z,1.60
2018-12-25T10:36:19.031Z,1.50
2018-12-25T10:38:46.554Z,1.50
2018-12-25T10:41:14.084Z,1.50
2018-12-25T10:43:41.594Z,1.50
2018-12-25T10:46:09.095Z,1.50
2018-12-25T10:48:36.654Z,1.50
2018-12-25T10:51:04.183Z,1.50
2018-12-25T10:53:31.687Z,1.50
2018-12-25T10:55:59.218Z,1.50
2018-12-25T10:58:26.740Z,1.60
2018-12-25T11:00:59.771Z,1.60
2018-12-25T11:03:27.268Z,1.60
2018-12-25T11:05:54.787Z,1.60
2018-12-25T11:08:22.269Z,1.70
2018-12-25T11:10:49.785Z,1.60
2018-12-25T11:13:17.352Z,1.60
2018-12-25T11:15:44.888Z,1.60
2018-12-25T11:18:12.436Z,1.60
2018-12-25T11:20:39.922Z,1.60
2018-12-25T11:23:07.408Z,1.60
2018-12-25T11:25:34.932Z,1.60
2018-12-25T11:28:02.457Z,1.60
2018-12-25T11:30:29.972Z,1.60
2018-12-25T11:32:57.676Z,1.70
2018-12-25T11:35:25.167Z,1.70
2018-12-25T11:37:52.652Z,1.80
2018-12-25T11:40:20.164Z,1.80
2018-12-25T11:42:47.674Z,1.80
2018-12-25T11:45:15.196Z,1.80
2018-12-25T11:47:42.742Z,1.80
2018-12-25T11:50:10.247Z,1.80
2018-12-25T11:52:37.745Z,1.80
2018-12-25T11:55:05.244Z,1.80
2018-12-25T11:57:32.777Z,1.80
2018-12-25T12:00:00.317Z,2.20
2018-12-25T12:02:27.806Z,1.90
2018-12-25T12:04:55.307Z,1.90
2018-12-25T12:07:22.848Z,1.90
2018-12-25T12:09:50.334Z,1.90
2018-12-25T12:12:17.852Z,2.00
2018-12-25T12:14:45.414Z,2.00
2018-12-25T12:17:12.931Z,2.00
2018-12-25T12:19:40.481Z,2.00
2018-12-25T12:22:07.990Z,2.10
2018-12-25T12:24:35.607Z,2.10
2018-12-25T12:27:03.096Z,2.20
2018-12-25T12:29:30.604Z,2.20
2018-12-25T12:31:58.143Z,2.20
2018-12-25T12:34:25.617Z,2.20
2018-12-25T12:36:53.092Z,2.20
2018-12-25T12:39:20.621Z,2.20
2018-12-25T12:41:48.139Z,2.20
2018-12-25T12:44:15.858Z,2.20
2018-12-25T12:46:43.313Z,2.20
2018-12-25T12:49:10.797Z,2.20
2018-12-25T12:51:38.306Z,2.20
2018-12-25T12:54:05.830Z,2.20
2018-12-25T12:56:33.301Z,2.20
2018-12-25T12:59:00.765Z,2.20
2018-12-25T13:01:28.293Z,2.20
2018-12-25T13:03:55.778Z,2.20
2018-12-25T13:06:23.301Z,2.20
2018-12-25T13:08:50.807Z,2.20
2018-12-25T13:11:18.346Z,2.20
2018-12-25T13:13:45.864Z,2.20
2018-12-25T13:16:13.388Z,2.20
2018-12-25T13:18:40.902Z,2.20
2018-12-25T13:21:08.629Z,2.20
2018-12-25T13:23:36.104Z,2.20
2018-12-25T13:26:03.589Z,2.30
2018-12-25T13:28:31.152Z,2.30
2018-12-25T13:30:58.625Z,2.30
2018-12-25T13:33:26.133Z,2.30
2018-12-25T13:35:53.668Z,2.30
2018-12-25T13:38:21.145Z,2.30
2018-12-25T13:40:48.603Z,2.30
2018-12-25T13:43:16.186Z,2.40
2018-12-25T13:45:43.787Z,2.30
2018-12-25T13:48:11.229Z,2.20
2018-12-25T13:50:38.823Z,2.20
2018-12-25T13:53:06.317Z,2.30
2018-12-25T13:55:33.847Z,2.20
2018-12-25T13:58:01.310Z,2.20
2018-12-25T14:00:28.866Z,2.20
2018-12-25T14:02:56.373Z,2.30
2018-12-25T14:05:23.868Z,2.20
2018-12-25T14:07:51.372Z,2.20
2018-12-25T14:10:18.890Z,2.30
2018-12-25T14:12:46.394Z,2.20
2018-12-25T14:15:13.940Z,2.20
2018-12-25T14:17:41.442Z,2.30
2018-12-25T14:20:08.914Z,2.30
2018-12-25T14:22:36.601Z,2.20
2018-12-25T14:25:04.351Z,2.30
2018-12-25T14:27:31.841Z,2.30
2018-12-25T14:29:59.348Z,2.30
2018-12-25T14:32:26.806Z,2.30
2018-12-25T14:34:54.442Z,2.20
2018-12-25T14:37:21.948Z,2.30
2018-12-25T14:39:49.474Z,2.20
2018-12-25T14:42:17.036Z,2.20
2018-12-25T14:44:44.571Z,2.20
2018-12-25T14:47:12.122Z,2.20
2018-12-25T14:49:39.628Z,2.20
2018-12-25T14:52:07.415Z,0.90
2018-12-25T14:54:34.925Z,2.20
2018-12-25T14:57:02.427Z,2.20
2018-12-25T14:59:29.999Z,2.30
2018-12-25T15:01:57.524Z,3.50
2018-12-25T15:04:25.337Z,2.20
2018-12-25T15:06:52.889Z,2.20
2018-12-25T15:09:20.417Z,2.20
2018-12-25T15:11:47.970Z,2.20
2018-12-25T15:14:15.464Z,2.20
2018-12-25T15:16:42.975Z,2.20
2018-12-25T15:19:10.503Z,2.20
2018-12-25T15:21:38.025Z,2.20
2018-12-25T15:24:05.484Z,2.20
2018-12-25T15:26:33.026Z,2.20
2018-12-25T15:29:00.540Z,2.20
2018-12-25T15:31:28.240Z,2.20
2018-12-25T15:33:55.753Z,2.20
2018-12-25T15:36:23.264Z,2.20
2018-12-25T15:38:51.007Z,2.20
2018-12-25T15:41:18.456Z,2.20
2018-12-25T15:43:45.964Z,2.20
2018-12-25T15:46:13.507Z,2.20
2018-12-25T15:48:40.977Z,2.20
2018-12-25T15:51:08.736Z,2.20
2018-12-25T15:53:37.155Z,2.30
2018-12-25T15:56:04.906Z,2.30
2018-12-25T15:58:32.455Z,2.10
2018-12-25T16:00:59.980Z,2.20
2018-12-25T16:03:27.483Z,2.10
2018-12-25T16:05:55.064Z,3.10
2018-12-25T16:08:22.591Z,2.10
2018-12-25T16:10:50.448Z,2.10
2018-12-25T16:13:17.984Z,2.10
2018-12-25T16:15:45.534Z,2.10
2018-12-25T16:18:13.100Z,2.10
2018-12-25T16:20:40.685Z,2.00
2018-12-25T16:23:08.214Z,2.00
2018-12-25T16:25:35.773Z,2.00
2018-12-25T16:28:03.286Z,2.00
2018-12-25T16:30:30.806Z,2.00
2018-12-25T16:32:58.344Z,2.00
2018-12-25T16:35:25.869Z,3.30
2018-12-25T16:37:53.633Z,1.90
2018-12-25T16:40:21.157Z,1.90
2018-12-25T16:42:48.681Z,1.70
2018-12-25T16:45:16.240Z,1.70
2018-12-25T16:47:44.119Z,2.40
2018-12-25T16:50:11.655Z,1.70
2018-12-25T16:52:39.195Z,2.20
2018-12-25T16:55:06.782Z,1.90
2018-12-25T16:57:34.305Z,1.10
2018-12-25T17:00:01.821Z,0.90
2018-12-25T17:02:29.362Z,0.80
2018-12-25T17:04:56.896Z,2.10
2018-12-25T17:07:24.409Z,0.70
2018-12-25T17:09:51.940Z,0.70
2018-12-25T17:12:19.506Z,0.50
2018-12-25T17:14:47.085Z,2.10
2018-12-25T17:17:14.614Z,0.40
2018-12-25T17:19:42.172Z,0.30
2018-12-25T17:22:09.715Z,1.60
2018-12-25T17:24:37.212Z,0.10
2018-12-25T17:27:04.789Z,0.10
2018-12-25T17:29:32.330Z,0.10
2018-12-25T17:31:59.870Z,0.10
2018-12-25T17:34:27.443Z,0.10
2018-12-25T17:36:54.981Z,0.70
2018-12-25T17:39:22.481Z,0.20
2018-12-25T17:41:50.088Z,0.10
2018-12-25T17:44:17.709Z,0.00
2018-12-25T17:46:45.232Z,0.10
2018-12-25T17:49:12.840Z,-0.10
2018-12-25T17:51:40.344Z,-0.20
2018-12-25T17:54:10.819Z,-0.30
2018-12-25T17:56:37.881Z,-0.40
2018-12-25T17:59:05.776Z,-0.40
2018-12-25T18:01:33.341Z,-0.40
2018-12-25T18:04:00.881Z,-0.50
2018-12-25T18:06:28.487Z,-0.20
2018-12-25T18:08:55.968Z,-0.50
2018-12-25T18:11:23.412Z,-0.30
2018-12-25T18:13:50.921Z,-0.20
2018-12-25T18:16:18.779Z,-0.20
2018-12-25T18:18:46.267Z,-0.10
2018-12-25T18:21:13.795Z,0.10
2018-12-25T18:23:41.656Z,-0.20
2018-12-25T18:26:09.178Z,-0.20
2018-12-25T18:28:36.686Z,-0.10
2018-12-25T18:31:04.465Z,-0.10
2018-12-25T18:33:31.986Z,-0.10
2018-12-25T18:35:59.531Z,-0.10
2018-12-25T18:38:27.088Z,0.00
2018-12-25T18:40:54.621Z,0.10
2018-12-25T18:43:22.194Z,0.00
2018-12-25T18:45:49.716Z,-0.10
2018-12-25T18:48:17.227Z,-0.10
2018-12-25T18:50:44.767Z,-0.20
2018-12-25T18:53:12.298Z,-0.10
2018-12-25T18:55:40.331Z,-0.10
2018-12-25T18:58:07.955Z,0.20
2018-12-25T19:00:35.496Z,-0.30
2018-12-25T19:03:03.021Z,-0.30
2018-12-25T19:05:30.519Z,-0.10
2018-12-25T19:07:58.083Z,-0.20
2018-12-25T19:10:25.607Z,-0.20
2018-12-25T19:12:53.115Z,-0.10
2018-12-25T19:15:22.798Z,-0.10
2018-12-25T19:17:51.569Z,0.00
2018-12-25T19:20:19.049Z,0.00
2018-12-25T19:22:46.786Z,0.00
2018-12-25T19:25:14.340Z,0.00
2018-12-25T19:27:41.893Z,0.00
2018-12-25T19:30:10.254Z,0.00
2018-12-25T19:32:43.768Z,1.30
2018-12-25T19:35:07.162Z,-0.10
2018-12-25T19:37:34.635Z,0.00
2018-12-25T19:40:02.219Z,-0.20
2018-12-25T19:42:29.737Z,-0.30
2018-12-25T19:44:57.288Z,-0.40
2018-12-25T19:47:24.851Z,-0.60
2018-12-25T19:49:52.387Z,-0.70
2018-12-25T19:52:19.919Z,-0.90
2018-12-25T19:54:47.458Z,-0.80
2018-12-25T19:57:14.977Z,-1.20
2018-12-25T19:59:42.486Z,-1.20
2018-12-25T20:02:09.989Z,-1.20
2018-12-25T20:05:00.526Z,-1.10
2018-12-25T20:08:14.375Z,-1.00
2018-12-25T20:11:04.869Z,-0.80
2018-12-25T20:13:54.666Z,-0.70
2018-12-25T20:16:59.109Z,-0.80
2018-12-25T20:19:55.138Z,-0.80
2018-12-25T20:23:12.332Z,-1.00
2018-12-25T20:26:12.772Z,-1.10
2018-12-25T20:29:16.981Z,-1.30
2018-12-25T20:32:32.404Z,-1.30
2018-12-25T20:35:50.891Z,-1.40
2018-12-25T20:39:08.403Z,-1.40
2018-12-25T20:42:22.688Z,-1.40
2018-12-25T20:45:40.350Z,-1.30
2018-12-25T20:48:40.708Z,-1.30
2018-12-25T20:52:01.108Z,-1.20
2018-12-25T20:55:16.201Z,-1.10
2018-12-25T20:58:24.376Z,-0.80
2018-12-25T21:01:47.322Z,-0.70
2018-12-25T21:05:11.984Z,-0.50
2018-12-25T21:08:09.470Z,-0.40
2018-12-25T21:11:30.982Z,-0.40
2018-12-25T21:14:27.856Z,-0.40
2018-12-25T21:17:49.678Z,-0.50
2018-12-25T21:20:53.751Z,-0.30
2018-12-25T21:23:58.267Z,-0.60
2018-12-25T21:27:02.863Z,-0.70
2018-12-25T21:29:30.387Z,-0.80
2018-12-25T21:31:57.951Z,-0.90
2018-12-25T21:34:25.561Z,-1.00
2018-12-25T21:36:53.262Z,-1.00
2018-12-25T21:39:20.822Z,-1.10
2018-12-25T21:41:48.669Z,-1.20
2018-12-25T21:44:17.207Z,-1.30
2018-12-25T21:46:45.068Z,-1.30
2018-12-25T21:49:13.555Z,-1.40
2018-12-25T21:51:41.159Z,-1.40
2018-12-25T21:54:08.696Z,-1.30
2018-12-25T21:56:36.559Z,-1.40
2018-12-25T21:59:04.085Z,-1.40
2018-12-25T22:01:31.573Z,-1.30
2018-12-25T22:03:59.305Z,-1.30
2018-12-25T22:06:26.791Z,-1.40
2018-12-25T22:08:54.335Z,-1.40
2018-12-25T22:11:21.895Z,-1.40
2018-12-25T22:13:49.439Z,-1.40
2018-12-25T22:16:16.930Z,-1.50
2018-12-25T22:18:44.568Z,-1.50
2018-12-25T22:21:12.090Z,-1.60
2018-12-25T22:23:39.616Z,-1.70
2018-12-25T22:26:07.289Z,-1.70
2018-12-25T22:28:34.819Z,-1.80
2018-12-25T22:31:02.352Z,-1.80
2018-12-25T22:33:29.893Z,-1.70
2018-12-25T22:35:57.725Z,-1.60
2018-12-25T22:38:25.372Z,-1.80
2018-12-25T22:40:52.890Z,-1.90
2018-12-25T22:43:20.441Z,-1.80
2018-12-25T22:45:47.968Z,-2.10
2018-12-25T22:48:15.542Z,-2.10
2018-12-25T22:50:43.078Z,-2.30
2018-12-25T22:53:10.800Z,-2.30
2018-12-25T22:55:38.269Z,-2.30
2018-12-25T22:58:05.786Z,-2.40
2018-12-25T23:00:34.053Z,-2.30
2018-12-25T23:03:01.564Z,-2.30
2018-12-25T23:05:29.052Z,-2.20
2018-12-25T23:07:56.648Z,-2.20
2018-12-25T23:10:24.182Z,-2.20
2018-12-25T23:12:51.709Z,-1.60
2018-12-25T23:15:19.436Z,-2.30
2018-12-25T23:17:46.953Z,-2.10
2018-12-25T23:20:14.457Z,-2.30
2018-12-25T23:22:41.974Z,-2.20
2018-12-25T23:25:09.477Z,-2.10
2018-12-25T23:27:37.030Z,-2.10
2018-12-25T23:30:05.169Z,-2.00
2018-12-25T23:32:32.675Z,-1.90
2018-12-25T23:35:00.298Z,-1.90
2018-12-25T23:37:27.850Z,-2.00
2018-12-25T23:39:55.327Z,-2.00
2018-12-25T23:42:22.839Z,-2.00
2018-12-25T23:44:50.335Z,-2.10
2018-12-25T23:47:17.817Z,-2.30
2018-12-25T23:49:45.361Z,-1.90
2018-12-25T23:52:12.998Z,-2.40
2018-12-25T23:54:40.520Z,-2.40
2018-12-25T23:57:08.039Z,-2.50
2018-12-25T23:59:35.547Z,-2.50
